createdAt,value
2023-12-31T00:02:16.350Z,5.32
2023-12-31T00:04:44.489Z,5.30
2023-12-31T00:07:11.406Z,5.56
2023-12-31T00:09:40.026Z,5.81
2023-12-31T00:12:07.201Z,5.39
2023-12-31T00:14:33.939Z,5.65
2023-12-31T00:17:00.748Z,5.54
2023-12-31T00:19:27.575Z,5.35
2023-12-31T00:21:54.361Z,5.71
2023-12-31T00:24:21.089Z,5.56
2023-12-31T00:26:47.801Z,6.54
2023-12-31T00:29:14.544Z,6.51
2023-12-31T00:31:41.288Z,5.65
2023-12-31T00:34:08.007Z,5.12
2023-12-31T00:36:34.832Z,5.33
2023-12-31T00:39:01.880Z,5.06
2023-12-31T00:41:28.616Z,5.37
2023-12-31T00:43:55.370Z,5.39
2023-12-31T00:46:22.214Z,5.82
2023-12-31T00:48:48.952Z,5.57
2023-12-31T00:51:16.128Z,5.61
2023-12-31T00:53:42.868Z,5.27
2023-12-31T00:56:10.230Z,5.13
2023-12-31T00:58:37.419Z,4.75
2023-12-31T01:01:04.827Z,5.20
2023-12-31T01:03:31.618Z,5.17
2023-12-31T01:06:08.568Z,5.14
2023-12-31T01:08:35.582Z,4.92
2023-12-31T01:11:02.337Z,5.00
2023-12-31T01:13:29.579Z,4.85
2023-12-31T01:15:56.419Z,5.05
2023-12-31T01:18:23.205Z,4.69
2023-12-31T01:20:49.914Z,4.96
2023-12-31T01:23:16.747Z,4.62
2023-12-31T01:25:44.167Z,4.48
2023-12-31T01:28:11.255Z,4.28
2023-12-31T01:30:38.059Z,4.07
2023-12-31T01:33:05.213Z,3.81
2023-12-31T01:35:32.110Z,3.61
2023-12-31T01:37:58.815Z,3.25
2023-12-31T01:40:25.638Z,3.05
2023-12-31T01:42:52.401Z,3.00
2023-12-31T01:45:19.078Z,3.06
2023-12-31T01:47:46.787Z,3.16
2023-12-31T01:50:14.861Z,3.09
2023-12-31T01:52:44.100Z,3.09
2023-12-31T01:55:13.656Z,2.81
2023-12-31T01:57:41.703Z,2.86
2023-12-31T02:00:10.726Z,2.76
2023-12-31T02:02:37.665Z,2.88
2023-12-31T02:05:04.907Z,2.73
2023-12-31T02:07:31.760Z,3.21
2023-12-31T02:09:58.670Z,4.62
2023-12-31T02:12:25.466Z,4.67
2023-12-31T02:14:52.129Z,3.32
2023-12-31T02:17:18.974Z,2.64
2023-12-31T02:19:45.821Z,2.51
2023-12-31T02:22:12.928Z,2.68
2023-12-31T02:24:49.120Z,2.82
2023-12-31T02:27:18.586Z,2.60
2023-12-31T02:29:45.313Z,2.52
2023-12-31T02:32:12.043Z,2.66
2023-12-31T02:34:39.211Z,2.57
2023-12-31T02:37:06.012Z,2.58
2023-12-31T02:39:32.743Z,2.54
2023-12-31T02:41:59.578Z,2.60
2023-12-31T02:44:26.281Z,2.57
2023-12-31T02:46:53.367Z,2.95
2023-12-31T02:49:20.191Z,2.89
2023-12-31T02:51:46.930Z,3.13
2023-12-31T02:54:13.736Z,3.42
2023-12-31T02:56:41.692Z,3.61
2023-12-31T02:59:08.723Z,3.70
2023-12-31T03:01:35.570Z,3.73
2023-12-31T03:04:02.611Z,3.77
2023-12-31T03:06:30.452Z,4.00
2023-12-31T03:08:57.184Z,3.85
2023-12-31T03:11:23.951Z,3.89
2023-12-31T03:13:50.786Z,4.17
2023-12-31T03:16:17.550Z,3.73
2023-12-31T03:18:44.341Z,4.17
2023-12-31T03:21:17.481Z,4.18
2023-12-31T03:23:44.222Z,4.34
2023-12-31T03:26:10.967Z,4.75
2023-12-31T03:28:37.991Z,5.72
2023-12-31T03:31:05.071Z,6.48
2023-12-31T03:33:32.292Z,7.71
2023-12-31T03:35:59.093Z,7.90
2023-12-31T03:38:25.817Z,8.95
2023-12-31T03:40:52.574Z,8.78
2023-12-31T03:43:19.303Z,9.12
2023-12-31T03:45:45.966Z,9.41
2023-12-31T03:48:12.816Z,9.81
2023-12-31T03:50:39.517Z,9.73
2023-12-31T03:53:06.461Z,10.26
2023-12-31T03:55:33.299Z,10.78
2023-12-31T03:58:00.279Z,10.23
2023-12-31T04:00:27.025Z,10.14
2023-12-31T04:02:53.699Z,10.88
2023-12-31T04:05:20.535Z,11.30
2023-12-31T04:07:49.969Z,11.33
2023-12-31T04:10:17.995Z,11.27
2023-12-31T04:13:00.541Z,11.28
2023-12-31T04:15:29.076Z,11.12
2023-12-31T04:18:14.013Z,11.45
2023-12-31T04:20:40.870Z,11.10
2023-12-31T04:23:08.356Z,11.03
2023-12-31T04:25:35.061Z,11.58
2023-12-31T04:28:01.864Z,11.35
2023-12-31T04:30:28.573Z,11.73
2023-12-31T04:32:55.311Z,11.56
2023-12-31T04:35:22.090Z,11.39
2023-12-31T04:37:48.796Z,11.25
2023-12-31T04:40:15.780Z,11.41
2023-12-31T04:42:42.434Z,11.40
2023-12-31T04:45:09.459Z,11.31
2023-12-31T04:47:37.230Z,11.27
2023-12-31T04:50:04.359Z,11.42
2023-12-31T04:52:31.134Z,11.00
2023-12-31T04:54:57.882Z,10.78
2023-12-31T04:57:24.544Z,10.87
2023-12-31T04:59:51.214Z,11.00
2023-12-31T05:02:18.052Z,11.20
2023-12-31T05:04:44.745Z,11.47
2023-12-31T05:07:11.484Z,11.43
2023-12-31T05:09:38.406Z,11.14
2023-12-31T05:12:05.451Z,11.53
2023-12-31T05:14:32.154Z,11.74
2023-12-31T05:16:58.853Z,11.43
2023-12-31T05:19:25.574Z,11.40
2023-12-31T05:21:52.258Z,10.49
2023-12-31T05:24:19.000Z,10.51
2023-12-31T05:26:45.661Z,10.30
2023-12-31T05:29:12.361Z,9.86
2023-12-31T05:31:39.070Z,9.66
2023-12-31T05:34:05.840Z,9.45
2023-12-31T05:36:32.572Z,10.11
2023-12-31T05:38:59.230Z,10.01
2023-12-31T05:41:25.949Z,9.55
2023-12-31T05:43:52.684Z,9.80
2023-12-31T05:46:19.473Z,9.93
2023-12-31T05:48:46.283Z,9.58
2023-12-31T05:51:13.028Z,9.95
2023-12-31T05:53:39.736Z,10.25
2023-12-31T05:56:06.958Z,9.90
2023-12-31T05:58:33.724Z,9.77
2023-12-31T06:01:00.566Z,10.29
2023-12-31T06:03:27.656Z,9.93
2023-12-31T06:05:54.413Z,10.58
2023-12-31T06:08:21.151Z,9.94
2023-12-31T06:10:47.932Z,9.78
2023-12-31T06:13:14.998Z,8.91
2023-12-31T06:15:41.753Z,8.91
2023-12-31T06:18:08.594Z,8.06
2023-12-31T06:20:35.345Z,8.60
2023-12-31T06:23:02.498Z,7.90
2023-12-31T06:25:29.400Z,7.86
2023-12-31T06:27:56.195Z,7.34
2023-12-31T06:30:23.116Z,7.26
2023-12-31T06:32:50.001Z,7.04
2023-12-31T06:35:16.740Z,6.61
2023-12-31T06:37:43.517Z,6.02
2023-12-31T06:40:10.704Z,6.00
2023-12-31T06:42:37.762Z,5.56
2023-12-31T06:45:05.866Z,4.93
2023-12-31T06:47:32.748Z,5.12
2023-12-31T06:49:59.582Z,4.92
2023-12-31T06:52:26.327Z,5.04
2023-12-31T06:54:53.052Z,4.91
2023-12-31T06:57:19.723Z,4.83
2023-12-31T06:59:46.442Z,4.78
2023-12-31T07:02:13.094Z,4.70
2023-12-31T07:04:39.839Z,4.93
2023-12-31T07:07:06.512Z,4.91
2023-12-31T07:09:33.273Z,4.74
2023-12-31T07:12:00.251Z,4.76
2023-12-31T07:14:27.027Z,4.58
2023-12-31T07:16:53.875Z,5.05
2023-12-31T07:19:20.683Z,4.75
2023-12-31T07:21:47.398Z,4.35
2023-12-31T07:24:14.197Z,4.53
2023-12-31T07:26:40.916Z,4.17
2023-12-31T07:29:10.420Z,3.91
2023-12-31T07:31:39.600Z,4.72
2023-12-31T07:34:07.563Z,5.04
2023-12-31T07:36:34.600Z,4.47
2023-12-31T07:39:01.704Z,4.21
2023-12-31T07:41:28.830Z,4.31
2023-12-31T07:43:55.655Z,4.11
2023-12-31T07:46:22.771Z,3.99
2023-12-31T07:48:49.606Z,3.83
2023-12-31T07:51:16.386Z,4.07
2023-12-31T07:53:43.065Z,4.01
2023-12-31T07:56:09.724Z,4.15
2023-12-31T07:58:36.960Z,4.00
2023-12-31T08:01:04.144Z,4.33
2023-12-31T08:03:31.540Z,4.21
2023-12-31T08:05:59.051Z,4.23
2023-12-31T08:08:25.980Z,4.46
2023-12-31T08:10:53.115Z,4.24
2023-12-31T08:13:20.344Z,4.09
2023-12-31T08:15:48.286Z,3.89
2023-12-31T08:18:15.697Z,4.08
2023-12-31T08:20:43.100Z,3.91
2023-12-31T08:23:09.866Z,4.15
2023-12-31T08:25:36.607Z,4.38
2023-12-31T08:28:03.642Z,4.31
2023-12-31T08:30:30.456Z,4.17
2023-12-31T08:32:57.315Z,4.49
2023-12-31T08:35:24.283Z,4.07
2023-12-31T08:37:51.294Z,4.10
2023-12-31T08:40:18.097Z,4.05
2023-12-31T08:42:45.178Z,4.77
2023-12-31T08:45:13.335Z,4.83
2023-12-31T08:47:40.193Z,4.73
2023-12-31T08:50:07.984Z,4.65
2023-12-31T08:52:36.041Z,4.47
2023-12-31T08:55:02.975Z,4.60
2023-12-31T08:57:29.733Z,4.55
2023-12-31T08:59:56.575Z,4.47
2023-12-31T09:02:25.985Z,4.83
2023-12-31T09:04:52.773Z,5.07
2023-12-31T09:07:19.801Z,5.18
2023-12-31T09:09:46.854Z,4.95
2023-12-31T09:12:13.642Z,5.12
2023-12-31T09:14:40.380Z,5.60
2023-12-31T09:17:07.164Z,5.88
2023-12-31T09:19:33.909Z,5.23
2023-12-31T09:22:00.704Z,5.74
2023-12-31T09:24:27.468Z,5.39
2023-12-31T09:26:54.223Z,5.62
2023-12-31T09:29:20.986Z,5.55
2023-12-31T09:31:47.722Z,5.57
2023-12-31T09:34:14.581Z,5.73
2023-12-31T09:36:41.553Z,5.32
2023-12-31T09:39:08.290Z,5.86
2023-12-31T09:41:37.364Z,5.98
2023-12-31T09:44:04.385Z,5.84
2023-12-31T09:46:37.844Z,5.73
2023-12-31T09:49:07.422Z,5.87
2023-12-31T09:51:35.380Z,5.73
2023-12-31T09:54:06.864Z,5.73
2023-12-31T09:56:35.283Z,5.26
2023-12-31T09:59:05.900Z,4.95
2023-12-31T10:01:36.806Z,4.68
2023-12-31T10:04:03.927Z,4.72
2023-12-31T10:06:32.356Z,4.62
2023-12-31T10:08:59.205Z,4.65
2023-12-31T10:11:25.877Z,4.59
2023-12-31T10:13:52.660Z,4.66
2023-12-31T10:16:19.465Z,4.23
2023-12-31T10:18:46.284Z,4.02
2023-12-31T10:21:12.965Z,4.23
2023-12-31T10:23:39.628Z,4.34
2023-12-31T10:26:06.437Z,4.42
2023-12-31T10:28:33.260Z,4.21
2023-12-31T10:31:00.337Z,4.00
2023-12-31T10:33:30.131Z,4.07
2023-12-31T10:36:05.930Z,3.87
2023-12-31T10:38:49.438Z,4.02
2023-12-31T10:41:18.773Z,3.78
2023-12-31T10:43:45.880Z,3.74
2023-12-31T10:46:15.612Z,3.43
2023-12-31T10:49:02.492Z,3.66
2023-12-31T10:51:29.322Z,3.95
2023-12-31T10:54:04.562Z,3.59
2023-12-31T10:56:33.352Z,3.59
2023-12-31T10:59:00.279Z,3.55
2023-12-31T11:01:27.340Z,3.35
2023-12-31T11:03:55.038Z,3.39
2023-12-31T11:06:22.838Z,3.32
2023-12-31T11:08:50.457Z,3.32
2023-12-31T11:11:17.845Z,3.67
2023-12-31T11:13:54.837Z,3.44
2023-12-31T11:16:59.151Z,3.48
2023-12-31T11:19:50.869Z,3.28
2023-12-31T11:22:56.459Z,3.78
2023-12-31T11:25:23.927Z,3.33
2023-12-31T11:27:51.583Z,3.61
2023-12-31T11:30:44.878Z,3.62
2023-12-31T11:33:11.764Z,3.86
2023-12-31T11:35:43.307Z,4.01
2023-12-31T11:38:10.109Z,3.77
2023-12-31T11:40:37.755Z,3.80
2023-12-31T11:43:15.808Z,4.02
2023-12-31T11:45:44.791Z,4.26
2023-12-31T11:48:20.707Z,3.83
2023-12-31T11:50:55.072Z,4.43
2023-12-31T11:53:22.951Z,4.30
2023-12-31T11:56:16.125Z,4.36
2023-12-31T11:58:44.101Z,4.78
2023-12-31T12:01:11.033Z,4.64
2023-12-31T12:03:37.980Z,4.95
2023-12-31T12:06:05.001Z,3.93
2023-12-31T12:08:33.133Z,2.57
2023-12-31T12:11:02.266Z,1.46
2023-12-31T12:13:29.212Z,0.66
2023-12-31T12:15:58.357Z,0.47
2023-12-31T12:18:25.189Z,0.26
2023-12-31T12:20:55.059Z,0.38
2023-12-31T12:23:22.790Z,0.48
2023-12-31T12:25:49.614Z,0.46
2023-12-31T12:28:16.416Z,0.37
2023-12-31T12:30:44.092Z,0.31
2023-12-31T12:33:14.589Z,0.31
2023-12-31T12:35:43.029Z,0.34
2023-12-31T12:38:09.778Z,0.27
2023-12-31T12:40:36.479Z,0.29
2023-12-31T12:43:03.588Z,0.25
2023-12-31T12:45:33.614Z,0.41
2023-12-31T12:48:02.457Z,0.41
2023-12-31T12:50:29.501Z,0.69
2023-12-31T12:52:57.291Z,0.85
2023-12-31T12:55:24.065Z,0.48
2023-12-31T12:57:50.742Z,0.45
2023-12-31T13:00:17.637Z,0.50
2023-12-31T13:02:45.558Z,0.32
2023-12-31T13:05:12.207Z,0.41
2023-12-31T13:07:38.988Z,0.33
2023-12-31T13:10:06.020Z,0.26
2023-12-31T13:12:32.754Z,0.42
2023-12-31T13:14:59.521Z,0.44
2023-12-31T13:17:26.258Z,0.41
2023-12-31T13:19:53.057Z,0.35
2023-12-31T13:22:19.784Z,0.47
2023-12-31T13:24:46.449Z,0.39
2023-12-31T13:27:13.208Z,0.48
2023-12-31T13:29:40.043Z,0.48
2023-12-31T13:32:08.375Z,0.59
2023-12-31T13:34:35.492Z,0.52
2023-12-31T13:37:02.266Z,0.50
2023-12-31T13:39:29.044Z,0.38
2023-12-31T13:41:56.413Z,0.55
2023-12-31T13:44:23.477Z,0.51
2023-12-31T13:46:50.229Z,0.61
2023-12-31T13:49:17.065Z,0.77
2023-12-31T13:51:43.886Z,0.59
2023-12-31T13:54:10.918Z,0.59
2023-12-31T13:56:37.900Z,0.62
2023-12-31T13:59:04.765Z,0.80
2023-12-31T14:01:31.802Z,0.90
2023-12-31T14:03:58.609Z,0.98
2023-12-31T14:06:25.495Z,0.91
2023-12-31T14:08:52.805Z,0.93
2023-12-31T14:11:22.691Z,1.02
2023-12-31T14:13:49.510Z,1.23
2023-12-31T14:16:16.274Z,1.76
2023-12-31T14:18:43.099Z,1.83
2023-12-31T14:21:10.035Z,1.61
2023-12-31T14:23:36.723Z,1.33
2023-12-31T14:26:03.667Z,1.14
2023-12-31T14:28:30.871Z,0.86
2023-12-31T14:30:57.746Z,0.70
2023-12-31T14:33:24.705Z,0.42
2023-12-31T14:35:51.755Z,0.38
2023-12-31T14:38:18.596Z,0.42
2023-12-31T14:40:45.506Z,0.41
2023-12-31T14:43:12.799Z,0.39
2023-12-31T14:45:39.599Z,0.40
2023-12-31T14:48:07.039Z,0.38
2023-12-31T14:50:34.287Z,0.47
2023-12-31T14:53:01.505Z,0.46
2023-12-31T14:55:28.376Z,0.43
2023-12-31T14:57:55.425Z,0.44
2023-12-31T15:00:22.280Z,0.52
2023-12-31T15:02:49.761Z,0.48
2023-12-31T15:05:18.662Z,0.58
2023-12-31T15:07:45.929Z,0.63
2023-12-31T15:10:13.588Z,0.54
2023-12-31T15:12:41.087Z,0.46
2023-12-31T15:15:11.194Z,0.71
2023-12-31T15:17:38.172Z,0.70
2023-12-31T15:20:06.014Z,0.68
2023-12-31T15:22:32.997Z,0.89
2023-12-31T15:25:00.230Z,0.54
2023-12-31T15:27:27.393Z,0.55
2023-12-31T15:29:54.172Z,0.57
2023-12-31T15:32:21.233Z,0.66
2023-12-31T15:34:47.966Z,0.65
2023-12-31T15:37:14.703Z,0.75
2023-12-31T15:39:41.496Z,0.84
2023-12-31T15:42:09.219Z,1.41
2023-12-31T15:44:36.238Z,1.55
2023-12-31T15:47:03.144Z,1.53
2023-12-31T15:49:30.333Z,1.50
2023-12-31T15:51:57.359Z,1.56
2023-12-31T15:54:24.393Z,1.22
2023-12-31T15:56:51.400Z,0.62
2023-12-31T15:59:18.176Z,0.93
2023-12-31T16:01:45.305Z,0.85
2023-12-31T16:04:12.364Z,1.41
2023-12-31T16:06:39.037Z,1.95
2023-12-31T16:09:05.706Z,2.30
2023-12-31T16:11:33.002Z,1.90
2023-12-31T16:13:59.731Z,2.52
2023-12-31T16:16:26.452Z,1.27
2023-12-31T16:18:53.328Z,1.32
2023-12-31T16:21:20.036Z,2.06
2023-12-31T16:23:46.757Z,3.11
2023-12-31T16:26:13.509Z,3.28
2023-12-31T16:28:40.292Z,2.49
2023-12-31T16:31:07.370Z,1.92
2023-12-31T16:33:38.500Z,1.59
2023-12-31T16:36:27.769Z,2.34
2023-12-31T16:38:54.674Z,2.93
2023-12-31T16:41:22.540Z,2.71
2023-12-31T16:43:50.821Z,2.75
2023-12-31T16:46:18.123Z,2.21
2023-12-31T16:48:45.017Z,2.18
2023-12-31T16:51:11.905Z,1.96
2023-12-31T16:53:38.928Z,2.17
2023-12-31T16:56:06.229Z,1.70
2023-12-31T16:58:33.016Z,0.99
2023-12-31T17:01:00.236Z,1.50
2023-12-31T17:03:26.984Z,1.72
2023-12-31T17:05:53.677Z,1.65
2023-12-31T17:08:20.374Z,4.18
2023-12-31T17:10:47.592Z,4.12
2023-12-31T17:13:14.392Z,3.38
2023-12-31T17:15:41.217Z,2.38
2023-12-31T17:18:08.177Z,2.32
2023-12-31T17:20:35.156Z,1.50
2023-12-31T17:23:01.870Z,0.99
2023-12-31T17:25:28.703Z,0.58
2023-12-31T17:27:55.464Z,0.81
2023-12-31T17:30:22.220Z,0.85
2023-12-31T17:32:49.376Z,0.98
2023-12-31T17:35:16.324Z,1.12
2023-12-31T17:37:43.707Z,1.37
2023-12-31T17:40:10.865Z,1.61
2023-12-31T17:42:37.799Z,2.03
2023-12-31T17:45:05.057Z,2.26
2023-12-31T17:47:31.831Z,4.14
2023-12-31T17:49:58.647Z,3.25
2023-12-31T17:52:25.610Z,2.46
2023-12-31T17:54:52.706Z,1.86
2023-12-31T17:57:19.512Z,1.91
2023-12-31T17:59:46.245Z,2.38
2023-12-31T18:02:13.134Z,2.29
2023-12-31T18:04:41.582Z,2.53
2023-12-31T18:07:11.123Z,2.77
2023-12-31T18:09:37.876Z,2.75
2023-12-31T18:12:05.131Z,2.49
2023-12-31T18:14:31.850Z,2.53
2023-12-31T18:16:58.798Z,2.59
2023-12-31T18:19:25.580Z,2.27
2023-12-31T18:21:52.334Z,2.69
2023-12-31T18:24:19.070Z,2.77
2023-12-31T18:26:45.821Z,2.81
2023-12-31T18:29:12.601Z,2.49
2023-12-31T18:31:39.580Z,2.44
2023-12-31T18:34:06.354Z,2.62
2023-12-31T18:36:33.051Z,2.53
2023-12-31T18:39:00.227Z,2.58
2023-12-31T18:41:26.924Z,2.38
2023-12-31T18:43:53.660Z,2.78
2023-12-31T18:46:20.343Z,3.70
2023-12-31T18:48:47.113Z,5.65
2023-12-31T18:51:13.837Z,4.08
2023-12-31T18:53:40.521Z,3.85
2023-12-31T18:56:11.142Z,4.74
2023-12-31T18:58:38.208Z,5.06
2023-12-31T19:01:05.253Z,4.79
2023-12-31T19:03:32.006Z,5.16
2023-12-31T19:05:58.757Z,3.97
2023-12-31T19:08:25.416Z,2.74
2023-12-31T19:10:52.093Z,2.60
2023-12-31T19:13:18.906Z,2.85
2023-12-31T19:15:45.696Z,2.56
2023-12-31T19:18:12.985Z,2.72
2023-12-31T19:20:39.751Z,2.55
2023-12-31T19:23:06.966Z,2.67
2023-12-31T19:25:34.105Z,2.83
2023-12-31T19:28:00.875Z,2.19
2023-12-31T19:30:28.044Z,2.56
2023-12-31T19:32:54.920Z,2.34
2023-12-31T19:35:21.607Z,2.75
2023-12-31T19:37:48.416Z,2.44
2023-12-31T19:40:15.580Z,3.20
2023-12-31T19:42:42.276Z,2.69
2023-12-31T19:45:09.353Z,2.77
2023-12-31T19:47:36.295Z,2.41
2023-12-31T19:50:03.162Z,2.19
2023-12-31T19:52:30.360Z,2.43
2023-12-31T19:54:57.805Z,3.75
2023-12-31T19:57:25.435Z,2.99
2023-12-31T19:59:52.216Z,2.68
2023-12-31T20:02:19.211Z,3.16
2023-12-31T20:04:46.083Z,2.76
2023-12-31T20:07:12.934Z,2.72
2023-12-31T20:09:39.808Z,2.93
2023-12-31T20:12:07.266Z,3.31
2023-12-31T20:14:33.925Z,2.64
2023-12-31T20:17:00.615Z,2.25
2023-12-31T20:19:27.356Z,2.46
2023-12-31T20:21:54.031Z,2.77
2023-12-31T20:24:20.726Z,2.42
2023-12-31T20:26:47.470Z,2.56
2023-12-31T20:29:16.751Z,2.79
2023-12-31T20:31:44.357Z,2.35
2023-12-31T20:34:11.046Z,2.52
2023-12-31T20:36:37.706Z,2.36
2023-12-31T20:39:05.417Z,2.47
2023-12-31T20:41:32.234Z,3.07
2023-12-31T20:43:58.880Z,2.73
2023-12-31T20:46:25.629Z,2.60
2023-12-31T20:48:52.383Z,2.73
2023-12-31T20:51:19.164Z,2.51
2023-12-31T20:53:46.055Z,3.85
2023-12-31T20:56:12.736Z,3.60
2023-12-31T20:58:39.496Z,3.81
2023-12-31T21:01:06.718Z,4.96
2023-12-31T21:03:33.506Z,4.36
2023-12-31T21:06:00.348Z,3.97
2023-12-31T21:08:27.208Z,3.89
2023-12-31T21:10:53.953Z,4.37
2023-12-31T21:13:22.615Z,4.27
2023-12-31T21:15:50.800Z,4.80
2023-12-31T21:18:19.290Z,6.20
2023-12-31T21:20:46.278Z,5.63
2023-12-31T21:23:13.051Z,6.19
2023-12-31T21:25:39.825Z,7.68
2023-12-31T21:28:08.392Z,6.44
2023-12-31T21:30:36.126Z,5.95
2023-12-31T21:33:04.361Z,5.76
2023-12-31T21:35:31.428Z,4.77
2023-12-31T21:37:58.158Z,5.67
2023-12-31T21:40:24.950Z,7.15
2023-12-31T21:42:51.615Z,6.13
2023-12-31T21:45:18.372Z,5.68
2023-12-31T21:47:45.170Z,5.10
2023-12-31T21:50:12.033Z,4.67
2023-12-31T21:52:39.040Z,4.57
2023-12-31T21:55:13.860Z,4.81
2023-12-31T21:57:46.938Z,4.25
2023-12-31T22:00:14.263Z,4.40
2023-12-31T22:02:40.979Z,4.46
2023-12-31T22:05:07.726Z,4.07
2023-12-31T22:07:34.558Z,4.03
2023-12-31T22:10:01.260Z,4.44
2023-12-31T22:12:27.893Z,3.73
2023-12-31T22:14:54.549Z,3.31
2023-12-31T22:17:21.237Z,3.29
2023-12-31T22:19:48.175Z,3.04
2023-12-31T22:22:14.888Z,3.36
2023-12-31T22:24:41.503Z,3.93
2023-12-31T22:27:08.175Z,4.95
2023-12-31T22:29:34.825Z,4.24
2023-12-31T22:32:01.537Z,4.10
2023-12-31T22:34:28.636Z,3.91
2023-12-31T22:36:55.966Z,5.86
2023-12-31T22:39:22.713Z,5.76
2023-12-31T22:41:49.400Z,3.87
2023-12-31T22:44:16.093Z,3.50
2023-12-31T22:46:42.868Z,4.27
2023-12-31T22:49:09.594Z,5.00
2023-12-31T22:51:36.268Z,4.87
2023-12-31T22:54:02.950Z,5.08
2023-12-31T22:56:29.675Z,5.31
2023-12-31T22:58:56.373Z,4.30
2023-12-31T23:01:23.061Z,4.07
2023-12-31T23:03:49.710Z,3.46
2023-12-31T23:06:16.483Z,3.51
2023-12-31T23:08:43.238Z,4.63
2023-12-31T23:11:10.109Z,5.61
2023-12-31T23:13:36.891Z,6.28
2023-12-31T23:16:04.861Z,5.96
2023-12-31T23:18:31.617Z,6.01
2023-12-31T23:20:58.391Z,6.17
2023-12-31T23:23:25.086Z,6.14
2023-12-31T23:25:51.905Z,6.25
2023-12-31T23:28:19.254Z,7.13
2023-12-31T23:30:45.954Z,8.14
2023-12-31T23:33:12.793Z,7.04
2023-12-31T23:35:39.582Z,6.81
2023-12-31T23:38:06.443Z,6.25
2023-12-31T23:40:33.258Z,6.41
2023-12-31T23:43:00.051Z,7.63
2023-12-31T23:45:26.768Z,7.08
2023-12-31T23:47:53.623Z,7.34
2023-12-31T23:50:20.501Z,6.95
2023-12-31T23:52:47.356Z,6.85
2023-12-31T23:55:14.122Z,6.57
2023-12-31T23:57:40.946Z,6.24
